sensor_id;sensor_type;location;lat;lon;timestamp;pressure;altitude;pressure_sealevel;temperature;humidity
69318;BME280;56457;52.190;4.440;2023-11-21T00:00:09;101266.16;;;11.08;100.00
69318;BME280;56457;52.190;4.440;2023-11-21T00:01:12;101260.91;;;11.12;100.00
69318;BME280;56457;52.190;4.440;2023-11-21T00:02:12;101266.16;;;11.14;100.00
69318;BME280;56457;52.190;4.440;2023-11-21T00:03:13;101265.28;;;11.13;100.00
69318;BME280;56457;52.190;4.440;2023-11-21T00:04:15;101260.03;;;11.09;100.00
69318;BME280;56457;52.190;4.440;2023-11-21T00:05:16;101261.75;;;11.11;100.00
69318;BME280;56457;52.190;4.440;2023-11-21T00:06:16;101260.03;;;11.13;100.00
69318;BME280;56457;52.190;4.440;2023-11-21T00:07:16;101264.38;;;11.14;100.00
69318;BME280;56457;52.190;4.440;2023-11-21T00:08:17;101257.41;;;11.13;100.00
69318;BME280;56457;52.190;4.440;2023-11-21T00:09:17;101264.38;;;11.17;100.00
69318;BME280;56457;52.190;4.440;2023-11-21T00:10:18;101261.75;;;11.19;100.00
69318;BME280;56457;52.190;4.440;2023-11-21T00:11:18;101259.13;;;11.16;100.00
69318;BME280;56457;52.190;4.440;2023-11-21T00:12:18;101268.78;;;11.14;100.00
69318;BME280;56457;52.190;4.440;2023-11-21T00:13:20;101270.50;;;11.16;100.00
69318;BME280;56457;52.190;4.440;2023-11-21T00:14:21;101271.38;;;11.20;100.00
69318;BME280;56457;52.190;4.440;2023-11-21T00:15:21;101262.63;;;11.21;100.00
69318;BME280;56457;52.190;4.440;2023-11-21T00:16:21;101267.00;;;11.20;100.00
69318;BME280;56457;52.190;4.440;2023-11-21T00:17:22;101266.09;;;11.23;100.00
69318;BME280;56457;52.190;4.440;2023-11-21T00:18:22;101267.84;;;11.22;100.00
69318;BME280;56457;52.190;4.440;2023-11-21T00:19:22;101261.72;;;11.22;100.00
69318;BME280;56457;52.190;4.440;2023-11-21T00:20:22;101262.59;;;11.22;100.00
69318;BME280;56457;52.190;4.440;2023-11-21T00:21:23;101261.72;;;11.23;100.00
69318;BME280;56457;52.190;4.440;2023-11-21T00:22:23;101260.84;;;11.23;100.00
69318;BME280;56457;52.190;4.440;2023-11-21T00:23:23;101262.59;;;11.22;100.00
69318;BME280;56457;52.190;4.440;2023-11-21T00:24:24;101261.69;;;11.28;100.00
69318;BME280;56457;52.190;4.440;2023-11-21T00:25:24;101259.94;;;11.28;100.00
69318;BME280;56457;52.190;4.440;2023-11-21T00:26:25;101258.22;;;11.30;100.00
69318;BME280;56457;52.190;4.440;2023-11-21T00:27:25;101264.31;;;11.34;100.00
69318;BME280;56457;52.190;4.440;2023-11-21T00:28:25;101260.78;;;11.35;100.00
69318;BME280;56457;52.190;4.440;2023-11-21T00:29:26;101255.53;;;11.35;100.00
69318;BME280;56457;52.190;4.440;2023-11-21T00:30:26;101264.28;;;11.36;100.00
69318;BME280;56457;52.190;4.440;2023-11-21T00:31:27;101266.06;;;11.35;100.00
69318;BME280;56457;52.190;4.440;2023-11-21T00:32:27;101261.69;;;11.37;100.00
69318;BME280;56457;52.190;4.440;2023-11-21T00:33:27;101273.09;;;11.31;100.00
69318;BME280;56457;52.190;4.440;2023-11-21T00:34:28;101273.09;;;11.31;100.00
69318;BME280;56457;52.190;4.440;2023-11-21T00:35:28;101274.84;;;11.28;100.00
69318;BME280;56457;52.190;4.440;2023-11-21T00:36:28;101272.22;;;11.28;100.00
69318;BME280;56457;52.190;4.440;2023-11-21T00:37:28;101274.84;;;11.31;100.00
69318;BME280;56457;52.190;4.440;2023-11-21T00:38:29;101273.09;;;11.25;100.00
69318;BME280;56457;52.190;4.440;2023-11-21T00:39:30;101274.84;;;11.23;100.00
69318;BME280;56457;52.190;4.440;2023-11-21T00:40:30;101272.22;;;11.23;100.00
69318;BME280;56457;52.190;4.440;2023-11-21T00:41:31;101268.75;;;11.18;100.00
69318;BME280;56457;52.190;4.440;2023-11-21T00:42:31;101276.63;;;11.15;100.00
69318;BME280;56457;52.190;4.440;2023-11-21T00:43:34;101272.28;;;11.13;100.00
69318;BME280;56457;52.190;4.440;2023-11-21T00:44:37;101273.16;;;11.10;100.00
69318;BME280;56457;52.190;4.440;2023-11-21T00:45:37;101268.78;;;11.08;100.00
69318;BME280;56457;52.190;4.440;2023-11-21T00:46:38;101274.03;;;11.09;100.00
69318;BME280;56457;52.190;4.440;2023-11-21T00:47:38;101281.03;;;11.04;100.00
69318;BME280;56457;52.190;4.440;2023-11-21T00:48:38;101283.69;;;11.02;100.00
69318;BME280;56457;52.190;4.440;2023-11-21T00:49:39;101285.41;;;10.99;100.00
69318;BME280;56457;52.190;4.440;2023-11-21T00:50:39;101286.31;;;10.98;100.00
69318;BME280;56457;52.190;4.440;2023-11-21T00:51:39;101288.94;;;10.95;100.00
69318;BME280;56457;52.190;4.440;2023-11-21T00:52:39;101288.97;;;10.93;100.00
69318;BME280;56457;52.190;4.440;2023-11-21T00:53:40;101287.22;;;10.88;100.00
69318;BME280;56457;52.190;4.440;2023-11-21T00:54:40;101292.47;;;10.85;100.00
69318;BME280;56457;52.190;4.440;2023-11-21T00:55:41;101287.22;;;10.83;100.00
69318;BME280;56457;52.190;4.440;2023-11-21T00:56:41;101290.72;;;10.85;100.00
69318;BME280;56457;52.190;4.440;2023-11-21T00:57:41;101289.84;;;10.83;100.00
69318;BME280;56457;52.190;4.440;2023-11-21T00:58:42;101288.97;;;10.83;100.00
69318;BME280;56457;52.190;4.440;2023-11-21T00:59:46;101300.34;;;10.77;100.00
69318;BME280;56457;52.190;4.440;2023-11-21T01:00:46;101286.34;;;10.73;100.00
69318;BME280;56457;52.190;4.440;2023-11-21T01:01:48;101293.34;;;10.71;100.00
69318;BME280;56457;52.190;4.440;2023-11-21T01:02:48;101301.22;;;10.67;100.00
69318;BME280;56457;52.190;4.440;2023-11-21T01:03:49;101297.72;;;10.68;100.00
69318;BME280;56457;52.190;4.440;2023-11-21T01:04:49;101300.34;;;10.66;100.00
69318;BME280;56457;52.190;4.440;2023-11-21T01:05:49;101305.63;;;10.69;100.00
69318;BME280;56457;52.190;4.440;2023-11-21T01:06:50;101307.34;;;10.67;100.00
69318;BME280;56457;52.190;4.440;2023-11-21T01:07:50;101305.59;;;10.66;100.00
69318;BME280;56457;52.190;4.440;2023-11-21T01:08:50;101307.34;;;10.67;100.00
69318;BME280;56457;52.190;4.440;2023-11-21T01:09:51;101315.22;;;10.61;100.00
69318;BME280;56457;52.190;4.440;2023-11-21T01:10:51;101317.88;;;10.63;100.00
69318;BME280;56457;52.190;4.440;2023-11-21T01:11:51;101310.88;;;10.63;100.00
69318;BME280;56457;52.190;4.440;2023-11-21T01:12:52;101318.72;;;10.65;100.00
69318;BME280;56457;52.190;4.440;2023-11-21T01:13:52;101315.25;;;10.69;100.00
69318;BME280;56457;52.190;4.440;2023-11-21T01:14:53;101313.47;;;10.74;100.00
69318;BME280;56457;52.190;4.440;2023-11-21T01:15:53;101318.72;;;10.75;100.00
69318;BME280;56457;52.190;4.440;2023-11-21T01:16:54;101321.34;;;10.78;100.00
69318;BME280;56457;52.190;4.440;2023-11-21T01:17:54;101321.34;;;10.78;100.00
69318;BME280;56457;52.190;4.440;2023-11-21T01:18:54;101319.63;;;10.74;100.00
69318;BME280;56457;52.190;4.440;2023-11-21T01:19:55;101323.09;;;10.76;100.00
69318;BME280;56457;52.190;4.440;2023-11-21T01:20:56;101323.97;;;10.74;100.00
69318;BME280;56457;52.190;4.440;2023-11-21T01:21:56;101319.59;;;10.71;100.00
69318;BME280;56457;52.190;4.440;2023-11-21T01:22:58;101325.72;;;10.72;100.00
69318;BME280;56457;52.190;4.440;2023-11-21T01:23:58;101324.84;;;10.71;100.00
69318;BME280;56457;52.190;4.440;2023-11-21T01:24:58;101332.72;;;10.70;100.00
69318;BME280;56457;52.190;4.440;2023-11-21T01:25:58;101331.84;;;10.66;100.00
69318;BME280;56457;52.190;4.440;2023-11-21T01:26:59;101345.88;;;10.62;100.00
69318;BME280;56457;52.190;4.440;2023-11-21T01:27:59;101337.09;;;10.60;100.00
69318;BME280;56457;52.190;4.440;2023-11-21T01:28:59;101340.63;;;10.62;100.00
69318;BME280;56457;52.190;4.440;2023-11-21T01:30:00;101340.63;;;10.62;100.00
69318;BME280;56457;52.190;4.440;2023-11-21T01:31:01;101337.97;;;10.61;100.00
69318;BME280;56457;52.190;4.440;2023-11-21T01:32:02;101346.72;;;10.57;100.00
69318;BME280;56457;52.190;4.440;2023-11-21T01:33:02;101343.25;;;10.56;100.00
69318;BME280;56457;52.190;4.440;2023-11-21T01:34:03;101350.22;;;10.60;100.00
69318;BME280;56457;52.190;4.440;2023-11-21T01:35:03;101345.88;;;10.62;100.00
69318;BME280;56457;52.190;4.440;2023-11-21T01:36:06;101346.72;;;10.58;100.00
69318;BME280;56457;52.190;4.440;2023-11-21T01:37:06;101356.34;;;10.61;100.00
69318;BME280;56457;52.190;4.440;2023-11-21T01:38:06;101358.09;;;10.60;100.00
69318;BME280;56457;52.190;4.440;2023-11-21T01:39:08;101360.72;;;10.60;100.00
69318;BME280;56457;52.190;4.440;2023-11-21T01:40:08;101355.47;;;10.60;100.00
69318;BME280;56457;52.190;4.440;2023-11-21T01:41:13;101356.34;;;10.62;100.00
69318;BME280;56457;52.190;4.440;2023-11-21T01:42:14;101360.69;;;10.62;100.00
69318;BME280;56457;52.190;4.440;2023-11-21T01:43:14;101357.22;;;10.60;100.00
69318;BME280;56457;52.190;4.440;2023-11-21T01:44:14;101356.34;;;10.62;100.00
69318;BME280;56457;52.190;4.440;2023-11-21T01:45:15;101356.34;;;10.62;100.00
69318;BME280;56457;52.190;4.440;2023-11-21T01:46:15;101361.59;;;10.62;100.00
69318;BME280;56457;52.190;4.440;2023-11-21T01:47:16;101362.47;;;10.64;100.00
69318;BME280;56457;52.190;4.440;2023-11-21T01:48:16;101368.59;;;10.63;100.00
69318;BME280;56457;52.190;4.440;2023-11-21T01:49:16;101369.44;;;10.67;100.00
69318;BME280;56457;52.190;4.440;2023-11-21T01:50:17;101367.72;;;10.69;100.00
69318;BME280;56457;52.190;4.440;2023-11-21T01:51:18;101365.06;;;10.67;100.00
69318;BME280;56457;52.190;4.440;2023-11-21T01:52:18;101376.47;;;10.69;100.00
69318;BME280;56457;52.190;4.440;2023-11-21T01:53:19;101370.31;;;10.67;100.00
69318;BME280;56457;52.190;4.440;2023-11-21T01:54:20;101371.22;;;10.66;100.00
69318;BME280;56457;52.190;4.440;2023-11-21T01:55:21;101370.34;;;10.64;100.00
69318;BME280;56457;52.190;4.440;2023-11-21T01:56:22;101379.09;;;10.65;100.00
69318;BME280;56457;52.190;4.440;2023-11-21T01:57:22;101378.19;;;10.67;100.00
69318;BME280;56457;52.190;4.440;2023-11-21T01:58:22;101385.22;;;10.74;100.00
69318;BME280;56457;52.190;4.440;2023-11-21T01:59:23;101379.09;;;10.77;100.00
69318;BME280;56457;52.190;4.440;2023-11-21T02:00:24;101379.06;;;10.80;100.00
69318;BME280;56457;52.190;4.440;2023-11-21T02:01:24;101375.59;;;10.78;100.00
69318;BME280;56457;52.190;4.440;2023-11-21T02:02:25;101372.97;;;10.83;100.00
69318;BME280;56457;52.190;4.440;2023-11-21T02:03:26;101384.34;;;10.88;100.00
69318;BME280;56457;52.190;4.440;2023-11-21T02:04:26;101376.47;;;10.89;100.00
69318;BME280;56457;52.190;4.440;2023-11-21T02:05:27;101382.56;;;10.93;100.00
69318;BME280;56457;52.190;4.440;2023-11-21T02:06:27;101375.59;;;10.95;100.00
69318;BME280;56457;52.190;4.440;2023-11-21T02:07:31;101384.34;;;11.00;100.00
69318;BME280;56457;52.190;4.440;2023-11-21T02:08:32;101385.19;;;11.05;100.00
69318;BME280;56457;52.190;4.440;2023-11-21T02:09:33;101381.69;;;11.09;100.00
69318;BME280;56457;52.190;4.440;2023-11-21T02:10:34;101377.28;;;11.11;100.00
69318;BME280;56457;52.190;4.440;2023-11-21T02:11:37;101381.69;;;11.14;100.00
69318;BME280;56457;52.190;4.440;2023-11-21T02:12:39;101386.03;;;11.16;100.00
69318;BME280;56457;52.190;4.440;2023-11-21T02:13:39;101387.81;;;11.16;100.00
69318;BME280;56457;52.190;4.440;2023-11-21T02:14:50;101388.66;;;11.18;100.00
69318;BME280;56457;52.190;4.440;2023-11-21T02:15:51;101392.19;;;11.18;100.00
69318;BME280;56457;52.190;4.440;2023-11-21T02:16:53;101392.19;;;11.18;100.00
69318;BME280;56457;52.190;4.440;2023-11-21T02:17:54;101393.03;;;11.17;100.00
69318;BME280;56457;52.190;4.440;2023-11-21T02:18:55;101401.81;;;11.19;100.00
69318;BME280;56457;52.190;4.440;2023-11-21T02:19:55;101403.56;;;11.20;100.00
69318;BME280;56457;52.190;4.440;2023-11-21T02:20:56;101401.81;;;11.19;100.00
69318;BME280;56457;52.190;4.440;2023-11-21T02:21:57;101402.69;;;11.20;100.00
69318;BME280;56457;52.190;4.440;2023-11-21T02:23:06;101406.19;;;11.20;100.00
69318;BME280;56457;52.190;4.440;2023-11-21T02:24:07;101406.19;;;11.17;100.00
69318;BME280;56457;52.190;4.440;2023-11-21T02:25:08;101414.06;;;11.20;100.00
69318;BME280;56457;52.190;4.440;2023-11-21T02:26:08;101407.94;;;11.20;100.00
69318;BME280;56457;52.190;4.440;2023-11-21T02:27:10;101411.44;;;11.19;100.00
69318;BME280;56457;52.190;4.440;2023-11-21T02:28:10;101413.19;;;11.20;100.00
69318;BME280;56457;52.190;4.440;2023-11-21T02:29:12;101413.19;;;11.15;100.00
69318;BME280;56457;52.190;4.440;2023-11-21T02:30:13;101414.06;;;11.14;100.00
69318;BME280;56457;52.190;4.440;2023-11-21T02:31:14;101407.06;;;11.19;100.00
69318;BME280;56457;52.190;4.440;2023-11-21T02:32:14;101409.69;;;11.21;100.00
69318;BME280;56457;52.190;4.440;2023-11-21T02:33:14;101410.56;;;11.18;100.00
69318;BME280;56457;52.190;4.440;2023-11-21T02:34:15;101403.56;;;11.22;100.00
69318;BME280;56457;52.190;4.440;2023-11-21T02:35:16;101401.81;;;11.25;100.00
69318;BME280;56457;52.190;4.440;2023-11-21T02:36:16;101406.19;;;11.22;100.00
69318;BME280;56457;52.190;4.440;2023-11-21T02:37:16;101398.28;;;11.23;100.00
69318;BME280;56457;52.190;4.440;2023-11-21T02:38:16;101396.56;;;11.25;100.00
69318;BME280;56457;52.190;4.440;2023-11-21T02:39:17;101401.81;;;11.25;100.00
69318;BME280;56457;52.190;4.440;2023-11-21T02:40:17;101401.81;;;11.22;100.00
69318;BME280;56457;52.190;4.440;2023-11-21T02:41:18;101399.19;;;11.19;100.00
69318;BME280;56457;52.190;4.440;2023-11-21T02:42:18;101391.31;;;11.19;100.00
69318;BME280;56457;52.190;4.440;2023-11-21T02:43:18;101401.81;;;11.19;100.00
69318;BME280;56457;52.190;4.440;2023-11-21T02:44:19;101397.44;;;11.17;100.00
69318;BME280;56457;52.190;4.440;2023-11-21T02:45:19;101394.81;;;11.14;100.00
69318;BME280;56457;52.190;4.440;2023-11-21T02:46:21;101404.44;;;11.12;100.00
69318;BME280;56457;52.190;4.440;2023-11-21T02:47:22;101393.09;;;11.07;100.00
69318;BME280;56457;52.190;4.440;2023-11-21T02:48:22;101399.19;;;11.04;100.00
69318;BME280;56457;52.190;4.440;2023-11-21T02:49:25;101406.22;;;11.00;100.00
69318;BME280;56457;52.190;4.440;2023-11-21T02:50:28;101401.81;;;10.98;100.00
69318;BME280;56457;52.190;4.440;2023-11-21T02:51:30;101401.84;;;10.95;100.00
69318;BME280;56457;52.190;4.440;2023-11-21T02:52:30;101397.44;;;10.92;100.00
69318;BME280;56457;52.190;4.440;2023-11-21T02:53:33;101404.44;;;10.92;100.00
69318;BME280;56457;52.190;4.440;2023-11-21T02:54:33;101403.59;;;10.90;100.00
69318;BME280;56457;52.190;4.440;2023-11-21T02:55:36;101404.47;;;10.90;100.00
69318;BME280;56457;52.190;4.440;2023-11-21T02:56:36;101406.19;;;10.93;100.00
69318;BME280;56457;52.190;4.440;2023-11-21T02:57:37;101407.97;;;10.94;100.00
69318;BME280;56457;52.190;4.440;2023-11-21T02:58:37;101414.06;;;10.93;100.00
69318;BME280;56457;52.190;4.440;2023-11-21T02:59:38;101415.84;;;10.89;100.00
69318;BME280;56457;52.190;4.440;2023-11-21T03:00:38;101414.06;;;10.93;100.00
69318;BME280;56457;52.190;4.440;2023-11-21T03:01:41;101414.94;;;10.92;100.00
69318;BME280;56457;52.190;4.440;2023-11-21T03:02:42;101414.97;;;10.93;100.00
69318;BME280;56457;52.190;4.440;2023-11-21T03:03:43;101413.19;;;10.92;100.00
69318;BME280;56457;52.190;4.440;2023-11-21T03:04:43;101413.19;;;10.91;100.00
69318;BME280;56457;52.190;4.440;2023-11-21T03:05:44;101414.06;;;10.93;100.00
69318;BME280;56457;52.190;4.440;2023-11-21T03:06:44;101413.19;;;10.91;100.00
69318;BME280;56457;52.190;4.440;2023-11-21T03:07:45;101408.84;;;10.84;100.00
69318;BME280;56457;52.190;4.440;2023-11-21T03:08:46;101409.72;;;10.83;100.00
69318;BME280;56457;52.190;4.440;2023-11-21T03:09:46;101403.56;;;10.81;100.00
69318;BME280;56457;52.190;4.440;2023-11-21T03:10:46;101415.84;;;10.82;100.00
69318;BME280;56457;52.190;4.440;2023-11-21T03:11:47;101405.34;;;10.82;100.00
69318;BME280;56457;52.190;4.440;2023-11-21T03:12:47;101409.69;;;10.79;100.00
69318;BME280;56457;52.190;4.440;2023-11-21T03:13:47;101407.94;;;10.78;100.00
69318;BME280;56457;52.190;4.440;2023-11-21T03:14:47;101407.94;;;10.85;100.00
69318;BME280;56457;52.190;4.440;2023-11-21T03:15:48;101414.06;;;10.85;100.00
69318;BME280;56457;52.190;4.440;2023-11-21T03:16:48;101407.09;;;10.83;100.00
69318;BME280;56457;52.190;4.440;2023-11-21T03:17:49;101411.47;;;10.74;100.00
69318;BME280;56457;52.190;4.440;2023-11-21T03:18:49;101407.09;;;10.69;100.00
69318;BME280;56457;52.190;4.440;2023-11-21T03:19:51;101413.22;;;10.69;100.00
69318;BME280;56457;52.190;4.440;2023-11-21T03:20:52;101415.84;;;10.69;100.00
69318;BME280;56457;52.190;4.440;2023-11-21T03:21:53;101417.56;;;10.72;100.00
69318;BME280;56457;52.190;4.440;2023-11-21T03:22:53;101414.94;;;10.72;100.00
69318;BME280;56457;52.190;4.440;2023-11-21T03:23:53;101426.31;;;10.74;100.00
69318;BME280;56457;52.190;4.440;2023-11-21T03:24:54;101424.56;;;10.71;100.00
69318;BME280;56457;52.190;4.440;2023-11-21T03:25:54;101423.69;;;10.72;100.00
69318;BME280;56457;52.190;4.440;2023-11-21T03:26:54;101431.56;;;10.71;100.00
69318;BME280;56457;52.190;4.440;2023-11-21T03:27:55;101424.59;;;10.74;100.00
69318;BME280;56457;52.190;4.440;2023-11-21T03:28:55;101426.34;;;10.77;100.00
69318;BME280;56457;52.190;4.440;2023-11-21T03:29:55;101435.06;;;10.77;100.00
69318;BME280;56457;52.190;4.440;2023-11-21T03:30:56;101433.31;;;10.79;100.00
69318;BME280;56457;52.190;4.440;2023-11-21T03:31:56;101435.09;;;10.84;100.00
69318;BME280;56457;52.190;4.440;2023-11-21T03:32:56;101437.69;;;10.85;100.00
69318;BME280;56457;52.190;4.440;2023-11-21T03:33:57;101435.94;;;10.84;100.00
69318;BME280;56457;52.190;4.440;2023-11-21T03:34:58;101439.47;;;10.83;100.00
69318;BME280;56457;52.190;4.440;2023-11-21T03:35:59;101436.84;;;10.91;100.00
69318;BME280;56457;52.190;4.440;2023-11-21T03:36:59;101444.69;;;10.92;100.00
69318;BME280;56457;52.190;4.440;2023-11-21T03:37:59;101436.84;;;10.88;100.00
69318;BME280;56457;52.190;4.440;2023-11-21T03:38:59;101442.97;;;10.88;100.00
69318;BME280;56457;52.190;4.440;2023-11-21T03:40:00;101446.44;;;10.86;100.00
69318;BME280;56457;52.190;4.440;2023-11-21T03:41:00;101442.97;;;10.84;100.00
69318;BME280;56457;52.190;4.440;2023-11-21T03:42:00;101449.97;;;10.83;100.00
69318;BME280;56457;52.190;4.440;2023-11-21T03:43:00;101451.72;;;10.87;100.00
69318;BME280;56457;52.190;4.440;2023-11-21T03:44:01;101455.19;;;10.86;100.00
69318;BME280;56457;52.190;4.440;2023-11-21T03:45:01;101460.47;;;10.88;100.00
69318;BME280;56457;52.190;4.440;2023-11-21T03:46:03;101460.47;;;10.88;100.00
69318;BME280;56457;52.190;4.440;2023-11-21T03:47:03;101457.84;;;10.89;100.00
69318;BME280;56457;52.190;4.440;2023-11-21T03:48:04;101458.72;;;10.88;100.00
69318;BME280;56457;52.190;4.440;2023-11-21T03:49:04;101464.81;;;10.92;100.00
69318;BME280;56457;52.190;4.440;2023-11-21T03:50:04;101463.97;;;10.88;100.00
69318;BME280;56457;52.190;4.440;2023-11-21T03:51:05;101464.84;;;10.89;100.00
69318;BME280;56457;52.190;4.440;2023-11-21T03:52:06;101470.06;;;10.92;100.00
69318;BME280;56457;52.190;4.440;2023-11-21T03:53:07;101469.22;;;10.97;100.00
69318;BME280;56457;52.190;4.440;2023-11-21T03:54:08;101473.59;;;11.04;100.00
69318;BME280;56457;52.190;4.440;2023-11-21T03:55:08;101468.34;;;11.12;100.00
69318;BME280;56457;52.190;4.440;2023-11-21T03:56:09;101470.97;;;11.09;100.00
69318;BME280;56457;52.190;4.440;2023-11-21T03:57:10;101467.47;;;11.01;100.00
69318;BME280;56457;52.190;4.440;2023-11-21T03:58:10;101467.47;;;10.99;100.00
69318;BME280;56457;52.190;4.440;2023-11-21T03:59:11;101474.44;;;10.99;100.00
69318;BME280;56457;52.190;4.440;2023-11-21T04:00:11;101474.47;;;11.05;100.00
69318;BME280;56457;52.190;4.440;2023-11-21T04:01:18;101478.84;;;11.09;100.00
69318;BME280;56457;52.190;4.440;2023-11-21T04:02:20;101483.22;;;11.12;100.00
69318;BME280;56457;52.190;4.440;2023-11-21T04:03:21;101480.59;;;11.13;100.00
69318;BME280;56457;52.190;4.440;2023-11-21T04:04:21;101484.97;;;11.17;100.00
69318;BME280;56457;52.190;4.440;2023-11-21T04:05:21;101488.50;;;11.13;100.00
69318;BME280;56457;52.190;4.440;2023-11-21T04:06:22;101487.59;;;11.11;100.00
69318;BME280;56457;52.190;4.440;2023-11-21T04:07:22;101486.72;;;11.08;100.00
69318;BME280;56457;52.190;4.440;2023-11-21T04:08:23;101488.47;;;11.04;100.00
69318;BME280;56457;52.190;4.440;2023-11-21T04:09:23;101489.34;;;11.01;100.00
69318;BME280;56457;52.190;4.440;2023-11-21T04:10:25;101489.34;;;11.01;100.00
69318;BME280;56457;52.190;4.440;2023-11-21T04:11:25;101492.84;;;11.08;100.00
69318;BME280;56457;52.190;4.440;2023-11-21T04:12:25;101502.50;;;11.14;100.00
69318;BME280;56457;52.190;4.440;2023-11-21T04:13:26;101497.22;;;11.11;100.00
69318;BME280;56457;52.190;4.440;2023-11-21T04:14:26;101494.59;;;11.15;100.00
69318;BME280;56457;52.190;4.440;2023-11-21T04:15:26;101499.84;;;11.15;100.00
69318;BME280;56457;52.190;4.440;2023-11-21T04:16:26;101500.75;;;11.19;100.00
69318;BME280;56457;52.190;4.440;2023-11-21T04:17:27;101497.22;;;11.17;100.00
69318;BME280;56457;52.190;4.440;2023-11-21T04:18:27;101503.34;;;11.16;100.00
69318;BME280;56457;52.190;4.440;2023-11-21T04:19:27;101505.97;;;11.17;100.00
69318;BME280;56457;52.190;4.440;2023-11-21T04:20:27;101502.47;;;11.15;100.00
69318;BME280;56457;52.190;4.440;2023-11-21T04:21:28;101509.50;;;11.15;100.00
69318;BME280;56457;52.190;4.440;2023-11-21T04:22:28;101510.38;;;11.12;100.00
69318;BME280;56457;52.190;4.440;2023-11-21T04:23:29;101511.25;;;11.08;100.00
69318;BME280;56457;52.190;4.440;2023-11-21T04:24:30;101505.97;;;11.08;100.00
69318;BME280;56457;52.190;4.440;2023-11-21T04:25:30;101508.63;;;11.07;100.00
69318;BME280;56457;52.190;4.440;2023-11-21T04:26:30;101507.75;;;11.00;100.00
69318;BME280;56457;52.190;4.440;2023-11-21T04:27:31;101516.50;;;11.00;100.00
69318;BME280;56457;52.190;4.440;2023-11-21T04:28:31;101522.59;;;10.98;100.00
69318;BME280;56457;52.190;4.440;2023-11-21T04:29:31;101522.59;;;10.98;100.00
69318;BME280;56457;52.190;4.440;2023-11-21T04:30:31;101522.59;;;10.92;100.00
69318;BME280;56457;52.190;4.440;2023-11-21T04:31:32;101524.34;;;10.91;100.00
69318;BME280;56457;52.190;4.440;2023-11-21T04:32:33;101517.34;;;10.87;100.00
69318;BME280;56457;52.190;4.440;2023-11-21T04:33:33;101520.84;;;10.88;100.00
69318;BME280;56457;52.190;4.440;2023-11-21T04:34:33;101522.59;;;10.83;100.00
69318;BME280;56457;52.190;4.440;2023-11-21T04:35:34;101515.56;;;10.75;100.00
69318;BME280;56457;52.190;4.440;2023-11-21T04:36:35;101513.81;;;10.76;100.00
69318;BME280;56457;52.190;4.440;2023-11-21T04:37:35;101513.78;;;10.73;100.00
69318;BME280;56457;52.190;4.440;2023-11-21T04:38:35;101519.06;;;10.68;100.00
69318;BME280;56457;52.190;4.440;2023-11-21T04:39:35;101516.41;;;10.65;100.00
69318;BME280;56457;52.190;4.440;2023-11-21T04:40:37;101509.41;;;10.60;100.00
69318;BME280;56457;52.190;4.440;2023-11-21T04:41:38;101518.13;;;10.62;100.00
69318;BME280;56457;52.190;4.440;2023-11-21T04:42:41;101516.41;;;10.67;100.00
69318;BME280;56457;52.190;4.440;2023-11-21T04:43:41;101519.94;;;10.69;100.00
69318;BME280;56457;52.190;4.440;2023-11-21T04:44:42;101529.53;;;10.67;100.00
69318;BME280;56457;52.190;4.440;2023-11-21T04:45:44;101521.66;;;10.65;100.00
69318;BME280;56457;52.190;4.440;2023-11-21T04:46:44;101529.50;;;10.61;100.00
69318;BME280;56457;52.190;4.440;2023-11-21T04:47:44;101529.50;;;10.58;100.00
69318;BME280;56457;52.190;4.440;2023-11-21T04:48:45;101533.00;;;10.54;100.00
69318;BME280;56457;52.190;4.440;2023-11-21T04:49:47;101537.34;;;10.48;100.00
69318;BME280;56457;52.190;4.440;2023-11-21T04:50:47;101534.72;;;10.44;100.00
69318;BME280;56457;52.190;4.440;2023-11-21T04:51:48;101528.56;;;10.33;100.00
69318;BME280;56457;52.190;4.440;2023-11-21T04:52:48;101525.91;;;10.30;100.00
69318;BME280;56457;52.190;4.440;2023-11-21T04:53:48;101522.41;;;10.31;100.00
69318;BME280;56457;52.190;4.440;2023-11-21T04:54:48;101529.44;;;10.32;100.00
69318;BME280;56457;52.190;4.440;2023-11-21T04:55:49;101533.78;;;10.36;100.00
69318;BME280;56457;52.190;4.440;2023-11-21T04:56:49;101525.94;;;10.36;100.00
69318;BME280;56457;52.190;4.440;2023-11-21T04:57:49;101541.69;;;10.40;100.00
69318;BME280;56457;52.190;4.440;2023-11-21T04:58:50;101535.56;;;10.43;100.00
69318;BME280;56457;52.190;4.440;2023-11-21T04:59:50;101540.84;;;10.44;100.00
69318;BME280;56457;52.190;4.440;2023-11-21T05:00:50;101540.81;;;10.40;100.00
69318;BME280;56457;52.190;4.440;2023-11-21T05:01:51;101559.16;;;10.37;100.00
69318;BME280;56457;52.190;4.440;2023-11-21T05:02:51;101557.41;;;10.36;100.00
69318;BME280;56457;52.190;4.440;2023-11-21T05:03:52;101546.94;;;10.39;100.00
69318;BME280;56457;52.190;4.440;2023-11-21T05:04:52;101550.44;;;10.38;100.00
69318;BME280;56457;52.190;4.440;2023-11-21T05:05:53;101556.56;;;10.43;100.00
69318;BME280;56457;52.190;4.440;2023-11-21T05:06:53;101564.41;;;10.43;100.00
69318;BME280;56457;52.190;4.440;2023-11-21T05:07:53;101556.59;;;10.44;100.00
69318;BME280;56457;52.190;4.440;2023-11-21T05:08:54;101563.56;;;10.44;100.00
69318;BME280;56457;52.190;4.440;2023-11-21T05:09:55;101564.44;;;10.49;100.00
69318;BME280;56457;52.190;4.440;2023-11-21T05:10:55;101567.97;;;10.54;100.00
69318;BME280;56457;52.190;4.440;2023-11-21T05:11:55;101563.63;;;10.56;100.00
69318;BME280;56457;52.190;4.440;2023-11-21T05:12:56;101569.72;;;10.55;100.00